Time;durP1;ratioP1;P1;durP2;ratioP2;P2;SDS_P1;SDS_P2;PMS_P1;PMS_P2;Temp;Humidity;BMP_temperature;BMP_pressure;BME280_temperature;BME280_humidity;BME280_pressure;Samples;Min_cycle;Max_cycle;Signal;HPM_P1;HPM_P2
2022/05/28 00:00:11;;;;;;;6.27;1.83;;;;;;;;;;5073352;28;20244;-84
2022/05/28 00:02:38;;;;;;;6.07;2.00;;;;;;;;;;5072879;28;20221;-85
2022/05/28 00:05:06;;;;;;;2.83;1.93;;;;;;;;;;5072881;28;20228;-85
2022/05/28 00:07:33;;;;;;;4.13;1.90;;;;;;;;;;5073118;28;20673;-84
2022/05/28 00:10:01;;;;;;;2.60;1.80;;;;;;;;;;5072487;28;20197;-83
2022/05/28 00:12:29;;;;;;;7.63;2.00;;;;;;;;;;5072027;28;20225;-85
2022/05/28 00:14:57;;;;;;;6.97;2.47;;;;;;;;;;5072448;28;20292;-85
2022/05/28 00:17:24;;;;;;;7.03;2.53;;;;;;;;;;5073374;28;20193;-85
2022/05/28 00:19:51;;;;;;;7.70;2.57;;;;;;;;;;5072578;28;20217;-85
2022/05/28 00:22:19;;;;;;;7.40;2.10;;;;;;;;;;5072618;28;20260;-84
2022/05/28 00:24:46;;;;;;;6.17;2.70;;;;;;;;;;5072536;28;20212;-85
2022/05/28 00:27:13;;;;;;;4.57;1.80;;;;;;;;;;5072240;28;20712;-83
2022/05/28 00:29:40;;;;;;;6.87;2.33;;;;;;;;;;5073078;28;20634;-85
2022/05/28 00:32:09;;;;;;;4.77;2.13;;;;;;;;;;5072050;28;20241;-83
2022/05/28 00:34:36;;;;;;;2.77;2.10;;;;;;;;;;5072288;28;20202;-84
2022/05/28 00:37:04;;;;;;;8.37;2.07;;;;;;;;;;5071976;28;20233;-84
2022/05/28 00:39:31;;;;;;;7.40;2.00;;;;;;;;;;5072855;28;20217;-85
2022/05/28 00:41:58;;;;;;;7.50;2.40;;;;;;;;;;5072048;28;20253;-85
2022/05/28 00:44:26;;;;;;;6.03;2.30;;;;;;;;;;5072364;28;20234;-84
2022/05/28 00:46:56;;;;;;;7.30;2.13;;;;;;;;;;5071724;28;20236;-85
2022/05/28 00:49:26;;;;;;;6.00;2.40;;;;;;;;;;5072464;28;20235;-84
2022/05/28 00:51:54;;;;;;;7.17;2.20;;;;;;;;;;5071766;28;20237;-84
2022/05/28 00:54:21;;;;;;;6.30;2.50;;;;;;;;;;5072242;28;20216;-85
2022/05/28 00:56:49;;;;;;;6.90;2.30;;;;;;;;;;5071706;28;20244;-84
2022/05/28 00:59:16;;;;;;;4.03;1.87;;;;;;;;;;5060013;28;20682;-84
2022/05/28 01:01:44;;;;;;;4.53;2.00;;;;;;;;;;5071593;28;20863;-84
2022/05/28 01:04:16;;;;;;;5.33;2.27;;;;;;;;;;5072327;28;20633;-84
2022/05/28 01:06:49;;;;;;;5.17;1.87;;;;;;;;;;5069801;28;20234;-84
2022/05/28 01:09:21;;;;;;;5.53;2.50;;;;;;;;;;5070911;28;20201;-85
2022/05/28 01:11:50;;;;;;;4.80;2.20;;;;;;;;;;5071626;28;20607;-83
2022/05/28 01:14:20;;;;;;;5.33;2.17;;;;;;;;;;5071602;28;20189;-84
2022/05/28 01:16:49;;;;;;;2.43;1.83;;;;;;;;;;5071234;28;20237;-84
2022/05/28 01:19:22;;;;;;;2.77;1.87;;;;;;;;;;5072328;28;20209;-84
2022/05/28 01:21:55;;;;;;;6.63;1.93;;;;;;;;;;5071459;28;20354;-85
2022/05/28 01:24:26;;;;;;;6.93;2.27;;;;;;;;;;5072058;28;20212;-84
2022/05/28 01:26:58;;;;;;;3.70;2.17;;;;;;;;;;5072592;28;20719;-84
2022/05/28 01:29:27;;;;;;;4.27;2.30;;;;;;;;;;5072186;28;20216;-84
2022/05/28 01:31:56;;;;;;;7.13;2.40;;;;;;;;;;5071414;28;20241;-85
2022/05/28 01:34:23;;;;;;;5.43;2.27;;;;;;;;;;5071929;28;20216;-84
2022/05/28 01:36:51;;;;;;;6.17;2.80;;;;;;;;;;5071457;28;20237;-84
2022/05/28 01:39:18;;;;;;;6.67;1.90;;;;;;;;;;5072495;28;20209;-84
2022/05/28 01:41:47;;;;;;;5.30;2.07;;;;;;;;;;5071472;28;20237;-84
2022/05/28 01:44:16;;;;;;;5.67;2.13;;;;;;;;;;5071770;28;20305;-84
2022/05/28 01:46:45;;;;;;;7.17;2.57;;;;;;;;;;5071592;28;20275;-83
2022/05/28 01:49:14;;;;;;;6.30;2.10;;;;;;;;;;5072022;28;20688;-84
2022/05/28 01:51:43;;;;;;;5.43;2.27;;;;;;;;;;5071466;28;20697;-84
2022/05/28 01:54:13;;;;;;;4.53;2.47;;;;;;;;;;5072033;28;20201;-84
2022/05/28 01:56:42;;;;;;;5.97;2.40;;;;;;;;;;5071484;28;20657;-84
2022/05/28 01:59:10;;;;;;;4.73;2.00;;;;;;;;;;5071813;28;20217;-84
2022/05/28 02:01:38;;;;;;;6.03;2.30;;;;;;;;;;5071302;28;20246;-85
2022/05/28 02:04:06;;;;;;;4.33;2.30;;;;;;;;;;5071522;28;20205;-84
2022/05/28 02:06:34;;;;;;;6.70;2.10;;;;;;;;;;5071653;28;20225;-82
2022/05/28 02:09:02;;;;;;;3.50;1.90;;;;;;;;;;5071752;28;20374;-84
2022/05/28 02:11:31;;;;;;;6.03;2.20;;;;;;;;;;5071180;28;20233;-84
2022/05/28 02:14:04;;;;;;;4.97;2.00;;;;;;;;;;5071790;28;20256;-84
2022/05/28 02:16:35;;;;;;;5.17;2.30;;;;;;;;;;5071441;28;20233;-84
2022/05/28 02:19:07;;;;;;;4.97;2.07;;;;;;;;;;5072065;28;20189;-84
2022/05/28 02:21:37;;;;;;;7.23;2.30;;;;;;;;;;5072117;28;20233;-83
2022/05/28 02:24:06;;;;;;;4.63;2.23;;;;;;;;;;5071725;28;20194;-84
2022/05/28 02:26:37;;;;;;;4.20;1.90;;;;;;;;;;5072412;28;20233;-84
2022/05/28 02:29:05;;;;;;;4.10;2.00;;;;;;;;;;5075229;28;20201;-84
2022/05/28 02:31:33;;;;;;;6.87;2.30;;;;;;;;;;5074703;28;20233;-84
2022/05/28 02:34:00;;;;;;;7.00;2.07;;;;;;;;;;5075081;28;20206;-84
2022/05/28 02:36:30;;;;;;;5.80;2.10;;;;;;;;;;5074624;28;20587;-84
2022/05/28 02:38:57;;;;;;;7.03;2.03;;;;;;;;;;5075408;28;20209;-84
2022/05/28 02:41:24;;;;;;;3.13;2.10;;;;;;;;;;5074326;28;20233;-84
2022/05/28 02:43:52;;;;;;;5.00;2.30;;;;;;;;;;5074526;28;20715;-84
2022/05/28 02:46:20;;;;;;;6.40;2.13;;;;;;;;;;5074261;28;20233;-84
2022/05/28 02:48:47;;;;;;;5.03;2.27;;;;;;;;;;5074680;28;20212;-84
2022/05/28 02:51:15;;;;;;;6.87;2.30;;;;;;;;;;5074480;28;20240;-84
2022/05/28 02:53:44;;;;;;;4.83;1.63;;;;;;;;;;5075022;28;20233;-84
2022/05/28 02:56:11;;;;;;;6.47;2.57;;;;;;;;;;5074363;28;20236;-84
2022/05/28 02:58:38;;;;;;;3.33;1.87;;;;;;;;;;5074797;28;20208;-84
2022/05/28 03:01:16;;;;;;;4.67;2.43;;;;;;;;;;5074260;28;20244;-84
2022/05/28 03:03:44;;;;;;;3.77;2.20;;;;;;;;;;5074751;28;20685;-83
2022/05/28 03:06:11;;;;;;;4.63;2.03;;;;;;;;;;5074195;28;20253;-84
2022/05/28 03:08:38;;;;;;;6.90;1.93;;;;;;;;;;5074903;28;20220;-84
2022/05/28 03:11:06;;;;;;;6.60;2.10;;;;;;;;;;5074315;28;20233;-84
2022/05/28 03:13:33;;;;;;;6.70;1.93;;;;;;;;;;5074740;28;20213;-83
2022/05/28 03:16:00;;;;;;;1.83;1.57;;;;;;;;;;5074429;28;20697;-84
2022/05/28 03:18:28;;;;;;;11.87;2.67;;;;;;;;;;5074813;28;20204;-82
2022/05/28 03:20:55;;;;;;;8.50;2.07;;;;;;;;;;5074036;28;20649;-84
2022/05/28 03:23:22;;;;;;;4.27;2.10;;;;;;;;;;5074686;28;20229;-82
2022/05/28 03:25:49;;;;;;;6.53;2.23;;;;;;;;;;5074401;28;20233;-84
2022/05/28 03:28:18;;;;;;;6.53;2.60;;;;;;;;;;5074688;28;20240;-84
2022/05/28 03:30:45;;;;;;;5.03;1.90;;;;;;;;;;5074641;28;20293;-84
2022/05/28 03:33:12;;;;;;;4.70;1.93;;;;;;;;;;5074940;28;20217;-84
2022/05/28 03:35:40;;;;;;;8.23;2.30;;;;;;;;;;5074863;28;20229;-84
2022/05/28 03:38:07;;;;;;;6.53;2.10;;;;;;;;;;5073650;28;20220;-84
2022/05/28 03:40:34;;;;;;;4.47;2.30;;;;;;;;;;5074723;28;20245;-84
2022/05/28 03:43:01;;;;;;;7.93;2.00;;;;;;;;;;5074215;28;20229;-86
2022/05/28 03:45:29;;;;;;;4.00;1.80;;;;;;;;;;5073351;28;20268;-86
2022/05/28 03:47:57;;;;;;;12.63;2.53;;;;;;;;;;5073669;28;20599;-85
2022/05/28 03:50:24;;;;;;;2.93;1.83;;;;;;;;;;5073329;28;20225;-86
2022/05/28 03:52:51;;;;;;;4.30;2.37;;;;;;;;;;5074139;28;20240;-85
2022/05/28 03:55:18;;;;;;;3.53;2.07;;;;;;;;;;5073040;28;20236;-86
2022/05/28 03:57:47;;;;;;;4.23;1.90;;;;;;;;;;5073876;28;20542;-85
2022/05/28 04:00:15;;;;;;;6.03;2.10;;;;;;;;;;5073378;28;20225;-84
2022/05/28 04:02:44;;;;;;;5.93;2.10;;;;;;;;;;5073245;28;20705;-84
2022/05/28 04:05:11;;;;;;;5.83;2.17;;;;;;;;;;5072569;28;20236;-84
2022/05/28 04:07:38;;;;;;;8.27;2.47;;;;;;;;;;5073054;28;20225;-85
2022/05/28 04:10:06;;;;;;;5.10;2.10;;;;;;;;;;5072639;28;20669;-84
2022/05/28 04:12:33;;;;;;;7.90;2.50;;;;;;;;;;5073320;28;20233;-85
2022/05/28 04:15:00;;;;;;;8.17;2.00;;;;;;;;;;5072370;28;20208;-84
2022/05/28 04:17:27;;;;;;;3.80;2.10;;;;;;;;;;5073139;28;20201;-84
2022/05/28 04:19:55;;;;;;;4.27;2.47;;;;;;;;;;5072591;28;20198;-84
2022/05/28 04:22:22;;;;;;;5.30;2.13;;;;;;;;;;5087787;22;20229;31
2022/05/28 04:24:50;;;;;;;4.50;2.27;;;;;;;;;;5002585;28;20223;-85
2022/05/28 04:27:17;;;;;;;6.60;2.10;;;;;;;;;;5013317;28;20231;-85
2022/05/28 04:29:44;;;;;;;7.13;1.90;;;;;;;;;;5013161;28;20199;-85
2022/05/28 04:32:11;;;;;;;7.77;2.30;;;;;;;;;;5012589;28;20231;-85
2022/05/28 04:34:38;;;;;;;5.93;2.43;;;;;;;;;;4993169;28;20200;-85
2022/05/28 04:37:07;;;;;;;5.07;2.00;;;;;;;;;;4992647;28;20231;-85
2022/05/28 04:39:34;;;;;;;4.70;2.00;;;;;;;;;;4993620;28;20223;-85
2022/05/28 04:42:01;;;;;;;4.87;2.37;;;;;;;;;;4992997;28;20647;-85
2022/05/28 04:44:28;;;;;;;3.37;1.87;;;;;;;;;;4993454;28;20236;-85
2022/05/28 04:46:55;;;;;;;7.03;1.80;;;;;;;;;;4992752;28;20232;-85
2022/05/28 04:49:22;;;;;;;8.37;2.13;;;;;;;;;;4993167;28;20217;-86
2022/05/28 04:51:49;;;;;;;2.13;1.90;;;;;;;;;;4992736;28;20232;-85
2022/05/28 04:54:17;;;;;;;2.53;2.33;;;;;;;;;;4993286;28;20236;-85
2022/05/28 04:56:46;;;;;;;5.60;2.13;;;;;;;;;;4992903;28;20259;-85
2022/05/28 04:59:13;;;;;;;7.50;2.27;;;;;;;;;;4993031;28;20214;-85
2022/05/28 05:01:40;;;;;;;3.43;1.97;;;;;;;;;;4992828;28;20235;-85
2022/05/28 05:04:07;;;;;;;3.37;1.90;;;;;;;;;;4993148;28;20243;-85
2022/05/28 05:06:34;;;;;;;6.90;2.83;;;;;;;;;;4992834;28;20240;-86
2022/05/28 05:09:01;;;;;;;2.33;1.93;;;;;;;;;;4993805;28;20625;-86
2022/05/28 05:11:29;;;;;;;7.80;2.50;;;;;;;;;;4994702;28;20347;-86
2022/05/28 05:13:56;;;;;;;9.07;3.70;;;;;;;;;;4997796;28;20220;-86
2022/05/28 05:16:23;;;;;;;5.33;2.07;;;;;;;;;;4994619;28;20251;-85
2022/05/28 05:18:50;;;;;;;5.93;1.87;;;;;;;;;;4993506;28;20208;-85
2022/05/28 05:21:18;;;;;;;4.53;1.93;;;;;;;;;;4992538;28;20235;-85
2022/05/28 05:23:45;;;;;;;8.20;2.30;;;;;;;;;;4992666;28;20637;-85
2022/05/28 05:26:13;;;;;;;10.40;3.53;;;;;;;;;;4992528;28;20308;-85
2022/05/28 05:28:41;;;;;;;6.27;2.13;;;;;;;;;;4993204;28;20559;-84
2022/05/28 05:31:08;;;;;;;5.87;2.20;;;;;;;;;;4992302;28;20353;-85
2022/05/28 05:33:35;;;;;;;5.13;2.53;;;;;;;;;;4992835;28;20231;-85
2022/05/28 05:36:02;;;;;;;4.20;2.30;;;;;;;;;;4992814;28;20231;-84
2022/05/28 05:38:29;;;;;;;4.73;2.23;;;;;;;;;;4992992;28;20204;-85
2022/05/28 05:40:56;;;;;;;5.30;2.37;;;;;;;;;;4992572;28;20242;-85
2022/05/28 05:43:23;;;;;;;6.27;2.10;;;;;;;;;;4992871;28;20235;-84
2022/05/28 05:45:56;;;;;;;6.57;2.23;;;;;;;;;;4992303;28;20590;-84
2022/05/28 05:48:23;;;;;;;4.53;2.10;;;;;;;;;;4992843;28;20238;-84
2022/05/28 05:50:50;;;;;;;4.50;2.63;;;;;;;;;;4992350;28;20242;-84
2022/05/28 05:53:17;;;;;;;6.83;1.90;;;;;;;;;;4992723;28;20223;-85
2022/05/28 05:55:45;;;;;;;5.23;2.07;;;;;;;;;;4992512;28;20242;-84
2022/05/28 05:58:12;;;;;;;8.97;2.47;;;;;;;;;;4992957;28;20204;-86
2022/05/28 06:00:40;;;;;;;7.93;2.73;;;;;;;;;;4992595;28;20234;-84
2022/05/28 06:03:08;;;;;;;6.63;2.53;;;;;;;;;;4996543;28;20287;-85
2022/05/28 06:05:35;;;;;;;9.17;2.83;;;;;;;;;;4996549;28;20232;-84
2022/05/28 06:08:03;;;;;;;5.30;2.03;;;;;;;;;;5000354;28;20651;-84
2022/05/28 06:10:30;;;;;;;7.10;2.53;;;;;;;;;;5003987;28;20240;-82
2022/05/28 06:12:57;;;;;;;3.80;2.23;;;;;;;;;;5003861;28;20228;-83
2022/05/28 06:15:24;;;;;;;5.80;2.20;;;;;;;;;;5002895;28;20259;-80
2022/05/28 06:17:51;;;;;;;4.03;2.00;;;;;;;;;;5002919;28;20200;-81
2022/05/28 06:20:19;;;;;;;5.93;2.77;;;;;;;;;;5003183;28;20238;-83
2022/05/28 06:22:46;;;;;;;3.67;2.03;;;;;;;;;;5002440;28;20294;-80
2022/05/28 06:25:14;;;;;;;4.57;1.70;;;;;;;;;;5007016;28;20242;-80
2022/05/28 06:27:41;;;;;;;3.87;1.90;;;;;;;;;;5004313;28;20578;-81
2022/05/28 06:30:08;;;;;;;7.20;2.50;;;;;;;;;;5002967;28;20208;-81
2022/05/28 06:32:35;;;;;;;10.93;2.17;;;;;;;;;;5003221;28;20223;-81
2022/05/28 06:35:02;;;;;;;10.90;2.27;;;;;;;;;;5002357;28;20201;-81
2022/05/28 06:37:31;;;;;;;5.83;1.90;;;;;;;;;;5003226;28;20645;-82
2022/05/28 06:39:58;;;;;;;7.30;2.23;;;;;;;;;;5003222;28;20208;-83
2022/05/28 06:42:25;;;;;;;3.50;1.70;;;;;;;;;;5001479;28;20212;-82
2022/05/28 06:44:55;;;;;;;8.83;2.20;;;;;;;;;;5001631;28;20208;-82
2022/05/28 06:47:22;;;;;;;5.07;2.10;;;;;;;;;;5003275;28;20232;-82
2022/05/28 06:51:01;;;;;;;7.13;2.40;;;;;;;;;;5002212;28;20204;-82
2022/05/28 06:52:38;;;;;;;7.00;2.30;;;;;;;;;;5000662;28;20662;-82
2022/05/28 06:55:05;;;;;;;5.73;2.40;;;;;;;;;;4999484;28;20208;-82
2022/05/28 06:57:32;;;;;;;7.33;2.23;;;;;;;;;;5001063;28;20204;-81
2022/05/28 06:59:59;;;;;;;4.90;2.10;;;;;;;;;;5000162;28;20196;-83
2022/05/28 07:02:27;;;;;;;6.27;1.93;;;;;;;;;;4998579;28;20576;-83
2022/05/28 07:04:54;;;;;;;9.43;1.90;;;;;;;;;;4995892;28;20212;-83
2022/05/28 07:07:21;;;;;;;5.63;1.90;;;;;;;;;;4997945;28;20211;-83
2022/05/28 07:09:49;;;;;;;7.40;2.17;;;;;;;;;;4994745;28;20204;-83
2022/05/28 07:12:16;;;;;;;4.63;1.80;;;;;;;;;;4991515;28;20235;-83
2022/05/28 07:14:43;;;;;;;5.43;2.03;;;;;;;;;;4994748;28;20206;-82
2022/05/28 07:17:10;;;;;;;7.10;2.23;;;;;;;;;;4997045;28;20239;-83
2022/05/28 07:19:37;;;;;;;6.20;2.27;;;;;;;;;;4995092;28;20212;-79
2022/05/28 07:22:05;;;;;;;5.40;1.90;;;;;;;;;;4996505;28;20239;-80
2022/05/28 07:24:32;;;;;;;9.50;2.20;;;;;;;;;;4996749;28;20243;-80
2022/05/28 07:27:00;;;;;;;5.63;1.77;;;;;;;;;;4996696;28;20246;-83
2022/05/28 07:29:27;;;;;;;3.83;2.00;;;;;;;;;;4999203;28;20236;-82
2022/05/28 07:31:54;;;;;;;3.50;1.47;;;;;;;;;;4998293;28;20251;-81
2022/05/28 07:34:21;;;;;;;3.63;1.90;;;;;;;;;;4995245;28;20228;-80
2022/05/28 07:36:49;;;;;;;4.67;1.40;;;;;;;;;;4993237;28;20255;-79
2022/05/28 07:39:16;;;;;;;6.47;1.93;;;;;;;;;;4995460;28;20220;-80
2022/05/28 07:41:43;;;;;;;4.10;2.23;;;;;;;;;;4993444;28;20239;-80
2022/05/28 07:44:12;;;;;;;3.70;1.40;;;;;;;;;;4994778;28;20236;-81
2022/05/28 07:46:39;;;;;;;5.07;1.90;;;;;;;;;;4994589;28;20629;-79
2022/05/28 07:49:06;;;;;;;4.37;1.77;;;;;;;;;;4994728;28;20228;-79
2022/05/28 07:51:34;;;;;;;5.95;1.75;;;;;;;;;;4993506;28;20243;-81
2022/05/28 07:54:01;;;;;;;3.80;1.63;;;;;;;;;;4993946;28;20609;-80
2022/05/28 07:56:28;;;;;;;5.77;1.70;;;;;;;;;;4993044;28;20243;-79
2022/05/28 07:58:57;;;;;;;7.68;1.92;;;;;;;;;;4995887;28;20208;-80
2022/05/28 08:01:27;;;;;;;3.05;1.77;;;;;;;;;;4995590;28;20610;-80
2022/05/28 08:03:55;;;;;;;3.70;1.63;;;;;;;;;;4992883;28;20742;-80
2022/05/28 08:06:22;;;;;;;6.95;2.00;;;;;;;;;;4993048;28;20259;-80
2022/05/28 08:08:51;;;;;;;3.70;1.70;;;;;;;;;;4993433;28;20643;-79
2022/05/28 08:11:19;;;;;;;5.53;1.90;;;;;;;;;;4993005;28;20236;-81
2022/05/28 08:13:46;;;;;;;3.77;1.33;;;;;;;;;;4994703;28;20235;-79
2022/05/28 08:16:13;;;;;;;8.40;1.80;;;;;;;;;;4993786;28;20236;-79
2022/05/28 08:18:42;;;;;;;4.57;1.63;;;;;;;;;;4996176;28;20200;-82
2022/05/28 08:23:59;;;;;;;4.18;1.80;;;;;;;;;;4957244;28;20236;-84
2022/05/28 08:26:27;;;;;;;3.67;1.50;;;;;;;;;;4995070;28;20243;-84
2022/05/28 08:28:54;;;;;;;5.68;1.63;;;;;;;;;;4996243;28;20236;-80
2022/05/28 08:31:22;;;;;;;4.00;1.50;;;;;;;;;;4999288;28;20639;-83
2022/05/28 08:33:50;;;;;;;4.97;1.60;;;;;;;;;;4999419;28;20228;-82
2022/05/28 08:36:17;;;;;;;4.80;1.20;;;;;;;;;;4997908;28;20251;-82
2022/05/28 08:38:45;;;;;;;5.93;1.33;;;;;;;;;;4997980;28;20212;-81
2022/05/28 08:41:13;;;;;;;4.33;1.90;;;;;;;;;;4998585;28;20238;-81
2022/05/28 08:43:42;;;;;;;6.80;2.20;;;;;;;;;;4998746;28;20240;-83
2022/05/28 08:46:10;;;;;;;3.87;1.67;;;;;;;;;;4998369;28;20314;-82
2022/05/28 08:48:41;;;;;;;5.22;1.70;;;;;;;;;;4998367;28;20231;-83
2022/05/28 08:51:12;;;;;;;2.45;1.25;;;;;;;;;;4998061;28;20788;-80
2022/05/28 08:53:42;;;;;;;2.92;1.50;;;;;;;;;;4998121;28;20235;-81
2022/05/28 08:56:09;;;;;;;2.55;1.50;;;;;;;;;;4998308;28;20235;-80
2022/05/28 08:58:37;;;;;;;4.50;1.60;;;;;;;;;;4999245;28;20200;-81
2022/05/28 09:01:05;;;;;;;3.17;1.33;;;;;;;;;;4999415;28;20237;-81
2022/05/28 09:03:38;;;;;;;3.63;1.30;;;;;;;;;;5000021;28;20246;-82
2022/05/28 09:06:06;;;;;;;4.05;1.33;;;;;;;;;;4999847;28;20243;-81
2022/05/28 09:08:44;;;;;;;4.05;1.30;;;;;;;;;;4997573;28;20208;-80
2022/05/28 09:11:13;;;;;;;6.93;1.70;;;;;;;;;;4998848;28;20240;-81
2022/05/28 09:13:40;;;;;;;3.28;1.30;;;;;;;;;;4999046;28;20573;-81
2022/05/28 09:16:10;;;;;;;2.90;1.40;;;;;;;;;;4998201;28;20302;-81
2022/05/28 09:18:39;;;;;;;2.50;1.48;;;;;;;;;;4999271;28;20185;-82
2022/05/28 09:21:08;;;;;;;2.90;1.10;;;;;;;;;;4998296;28;20263;-84
2022/05/28 09:23:43;;;;;;;4.07;1.60;;;;;;;;;;4994506;28;20254;-82
2022/05/28 09:26:11;;;;;;;5.10;1.20;;;;;;;;;;4999010;28;20235;-82
2022/05/28 09:28:45;;;;;;;3.05;1.40;;;;;;;;;;5000461;28;20230;-81
2022/05/28 09:31:20;;;;;;;4.80;1.65;;;;;;;;;;4998078;28;20236;-81
2022/05/28 09:34:01;;;;;;;4.70;1.42;;;;;;;;;;5000745;28;20238;-81
2022/05/28 09:36:35;;;;;;;4.93;1.20;;;;;;;;;;4999895;28;20231;-80
2022/05/28 09:39:11;;;;;;;2.83;1.40;;;;;;;;;;5002249;28;20272;-81
2022/05/28 09:41:44;;;;;;;5.05;1.17;;;;;;;;;;5003653;28;20289;-81
2022/05/28 09:44:16;;;;;;;3.55;1.25;;;;;;;;;;5004832;28;20286;-81
2022/05/28 09:46:44;;;;;;;3.53;1.20;;;;;;;;;;5003210;28;20259;-82
2022/05/28 09:49:13;;;;;;;2.30;1.15;;;;;;;;;;5002672;28;20589;-81
2022/05/28 09:51:40;;;;;;;2.13;1.00;;;;;;;;;;5001586;28;20243;-81
2022/05/28 09:54:16;;;;;;;3.67;1.15;;;;;;;;;;4998089;28;20231;-81
2022/05/28 09:56:44;;;;;;;3.47;1.40;;;;;;;;;;4998965;28;20231;-81
2022/05/28 09:59:19;;;;;;;4.20;0.90;;;;;;;;;;4999625;28;20196;-83
2022/05/28 10:01:52;;;;;;;2.97;1.45;;;;;;;;;;4999259;28;20589;-81
2022/05/28 10:04:31;;;;;;;3.80;1.17;;;;;;;;;;5000305;28;20232;-81
2022/05/28 10:06:59;;;;;;;2.58;1.20;;;;;;;;;;5000010;28;20323;-81
2022/05/28 10:09:28;;;;;;;3.05;1.25;;;;;;;;;;5002584;28;20235;-81
2022/05/28 10:11:56;;;;;;;2.90;0.98;;;;;;;;;;5003472;28;20239;-82
2022/05/28 10:14:24;;;;;;;3.83;1.00;;;;;;;;;;5000730;28;20232;-80
2022/05/28 10:16:55;;;;;;;3.58;1.02;;;;;;;;;;4996993;28;20318;-84
2022/05/28 10:19:25;;;;;;;1.27;0.80;;;;;;;;;;5000608;28;20208;-81
2022/05/28 10:21:54;;;;;;;3.83;1.02;;;;;;;;;;5002209;28;20235;-80
2022/05/28 10:24:22;;;;;;;1.63;0.90;;;;;;;;;;5000977;28;20240;-84
2022/05/28 10:26:53;;;;;;;4.95;0.93;;;;;;;;;;4994598;28;20326;-85
2022/05/28 10:29:21;;;;;;;1.70;1.00;;;;;;;;;;4994343;28;20256;-81
2022/05/28 10:31:50;;;;;;;5.93;1.15;;;;;;;;;;4994873;28;20246;-81
2022/05/28 10:34:24;;;;;;;2.67;1.20;;;;;;;;;;4998061;28;20855;-81
2022/05/28 10:36:51;;;;;;;4.72;1.15;;;;;;;;;;4996617;28;20270;-81
2022/05/28 10:39:19;;;;;;;3.58;1.00;;;;;;;;;;4996900;28;20221;-82
2022/05/28 10:41:49;;;;;;;2.45;1.10;;;;;;;;;;4994273;28;20236;-83
2022/05/28 10:44:19;;;;;;;3.75;1.17;;;;;;;;;;4995112;28;20232;-84
2022/05/28 10:46:59;;;;;;;3.90;1.23;;;;;;;;;;4993938;28;20232;-83
2022/05/28 10:49:31;;;;;;;2.28;0.98;;;;;;;;;;4994124;28;20703;-83
2022/05/28 10:52:03;;;;;;;2.55;1.00;;;;;;;;;;4994409;28;20262;-84
2022/05/28 10:54:44;;;;;;;2.65;1.20;;;;;;;;;;4994709;28;20697;-84
2022/05/28 10:57:24;;;;;;;2.13;1.10;;;;;;;;;;4994807;28;20242;-83
2022/05/28 10:59:58;;;;;;;2.17;0.90;;;;;;;;;;4993798;28;20204;-83
2022/05/28 11:02:37;;;;;;;2.72;1.35;;;;;;;;;;4994752;28;20212;-85
2022/05/28 11:05:10;;;;;;;2.13;0.82;;;;;;;;;;4994165;28;20227;-84
2022/05/28 11:07:44;;;;;;;2.13;0.70;;;;;;;;;;4979728;28;20259;-84
2022/05/28 11:10:17;;;;;;;2.67;1.20;;;;;;;;;;4974247;28;20236;-84
2022/05/28 11:12:59;;;;;;;1.08;0.98;;;;;;;;;;4975106;28;20233;-84
2022/05/28 11:15:33;;;;;;;2.55;1.10;;;;;;;;;;4974328;28;20731;-84
2022/05/28 11:18:07;;;;;;;3.58;1.52;;;;;;;;;;4974718;28;20212;-84
2022/05/28 11:20:39;;;;;;;4.30;1.05;;;;;;;;;;4974255;28;20295;-83
2022/05/28 11:23:26;;;;;;;2.83;1.00;;;;;;;;;;4974891;28;20240;-85
2022/05/28 11:26:00;;;;;;;4.07;0.93;;;;;;;;;;4973925;28;20271;-84
2022/05/28 11:28:47;;;;;;;3.58;1.10;;;;;;;;;;4974359;28;20246;-84
2022/05/28 11:31:19;;;;;;;1.45;0.90;;;;;;;;;;4974573;28;20264;-84
2022/05/28 11:33:49;;;;;;;2.40;0.90;;;;;;;;;;4975116;28;20260;-84
2022/05/28 11:36:21;;;;;;;2.88;1.05;;;;;;;;;;4974044;28;20633;-84
2022/05/28 11:38:51;;;;;;;3.28;0.98;;;;;;;;;;4973618;28;20223;-85
2022/05/28 11:41:20;;;;;;;2.75;1.00;;;;;;;;;;4974028;28;20237;-84
2022/05/28 11:43:49;;;;;;;1.70;1.02;;;;;;;;;;4973466;28;20608;-84
2022/05/28 11:46:22;;;;;;;2.35;1.02;;;;;;;;;;4974099;28;20252;-84
2022/05/28 11:51:42;;;;;;;3.38;1.08;;;;;;;;;;4973826;28;20316;-84
2022/05/28 11:54:10;;;;;;;2.45;1.13;;;;;;;;;;4974053;28;20236;-84
2022/05/28 11:56:38;;;;;;;1.73;0.80;;;;;;;;;;4974211;28;20247;-82
2022/05/28 11:59:07;;;;;;;1.60;0.90;;;;;;;;;;4973564;28;20200;-82
2022/05/28 12:01:39;;;;;;;2.70;0.73;;;;;;;;;;4978601;28;20252;-82
2022/05/28 12:04:07;;;;;;;2.13;1.80;;;;;;;;;;4989140;28;20239;-82
2022/05/28 12:06:36;;;;;;;4.28;1.00;;;;;;;;;;4989876;28;20227;-83
2022/05/28 12:09:06;;;;;;;2.63;1.02;;;;;;;;;;4994122;28;20220;-82
2022/05/28 12:11:37;;;;;;;3.72;1.10;;;;;;;;;;4990523;28;20228;-82
2022/05/28 12:14:05;;;;;;;2.08;1.00;;;;;;;;;;4994523;28;20231;-83
2022/05/28 12:16:34;;;;;;;5.10;1.38;;;;;;;;;;4994544;28;20235;-82
2022/05/28 12:19:05;;;;;;;3.15;1.13;;;;;;;;;;4995030;28;20946;-82
2022/05/28 12:21:34;;;;;;;2.47;1.20;;;;;;;;;;4994489;28;20246;-82
2022/05/28 12:24:06;;;;;;;4.00;0.93;;;;;;;;;;4994240;28;20308;-82
2022/05/28 12:26:56;;;;;;;1.60;0.80;;;;;;;;;;4995841;28;20762;-81
2022/05/28 12:29:32;;;;;;;5.00;1.35;;;;;;;;;;4995734;28;20227;-82
2022/05/28 12:32:10;;;;;;;1.58;1.10;;;;;;;;;;4995094;28;20299;-82
2022/05/28 12:34:40;;;;;;;2.33;0.70;;;;;;;;;;4995086;28;20727;-82
2022/05/28 12:37:12;;;;;;;1.85;1.08;;;;;;;;;;4993603;28;20263;-83
2022/05/28 12:39:42;;;;;;;3.80;0.80;;;;;;;;;;4993991;28;20216;-85
2022/05/28 12:42:19;;;;;;;1.00;0.90;;;;;;;;;;4994307;28;20782;-83
2022/05/28 12:44:50;;;;;;;1.25;0.60;;;;;;;;;;4990406;28;20228;-83
2022/05/28 12:47:24;;;;;;;2.80;0.80;;;;;;;;;;4990856;28;20246;-84
2022/05/28 12:49:56;;;;;;;4.78;0.80;;;;;;;;;;4995338;28;20228;-83
2022/05/28 12:52:34;;;;;;;3.90;1.52;;;;;;;;;;4983665;28;20615;-82
2022/05/28 12:55:04;;;;;;;3.08;1.20;;;;;;;;;;4983584;28;20212;-81
2022/05/28 12:57:33;;;;;;;0.90;0.55;;;;;;;;;;4982650;28;20205;-82
2022/05/28 13:00:01;;;;;;;1.65;0.88;;;;;;;;;;4978888;28;20193;-83
2022/05/28 13:02:30;;;;;;;1.23;0.85;;;;;;;;;;4985437;28;20341;-82
2022/05/28 13:05:04;;;;;;;1.20;1.05;;;;;;;;;;4987684;28;20216;-82
2022/05/28 13:07:34;;;;;;;1.10;0.82;;;;;;;;;;4980523;28;20200;-81
2022/05/28 13:10:04;;;;;;;2.63;0.90;;;;;;;;;;4973003;28;20323;-82
2022/05/28 13:12:33;;;;;;;1.88;0.93;;;;;;;;;;4974470;28;20203;-82
2022/05/28 13:15:13;;;;;;;2.55;1.25;;;;;;;;;;4973120;28;20221;-82
2022/05/28 13:17:52;;;;;;;1.48;0.90;;;;;;;;;;4973547;28;20573;-82
2022/05/28 13:20:27;;;;;;;1.02;0.93;;;;;;;;;;4973183;28;20236;-83
2022/05/28 13:23:02;;;;;;;2.08;1.05;;;;;;;;;;4973665;28;20267;-81
2022/05/28 13:25:38;;;;;;;1.73;1.00;;;;;;;;;;4972422;28;20244;-83
2022/05/28 13:28:29;;;;;;;3.03;1.10;;;;;;;;;;4972983;28;20205;-83
2022/05/28 13:31:00;;;;;;;8.23;1.10;;;;;;;;;;4957383;28;20549;-82
2022/05/28 13:33:32;;;;;;;2.28;1.00;;;;;;;;;;4972890;28;20256;-83
2022/05/28 13:36:01;;;;;;;1.85;1.20;;;;;;;;;;4972700;28;20627;-83
2022/05/28 13:38:30;;;;;;;2.80;0.80;;;;;;;;;;4972504;28;20212;-83
2022/05/28 13:40:58;;;;;;;3.15;1.30;;;;;;;;;;4972548;28;20592;-83
2022/05/28 13:43:27;;;;;;;3.17;1.13;;;;;;;;;;4972404;28;20950;-83
2022/05/28 13:46:01;;;;;;;3.35;0.95;;;;;;;;;;4972149;28;20240;-82
2022/05/28 13:48:28;;;;;;;0.95;0.82;;;;;;;;;;4972773;28;20212;-83
2022/05/28 13:50:57;;;;;;;3.28;0.82;;;;;;;;;;4974588;28;20232;-82
2022/05/28 13:53:26;;;;;;;2.08;1.35;;;;;;;;;;4976764;28;20229;-82
2022/05/28 13:55:58;;;;;;;2.28;1.05;;;;;;;;;;4976754;28;20651;-84
2022/05/28 13:58:26;;;;;;;3.45;1.95;;;;;;;;;;4979017;28;20213;-83
2022/05/28 14:00:55;;;;;;;1.75;1.63;;;;;;;;;;4979728;28;20236;-82
2022/05/28 14:03:27;;;;;;;5.32;1.02;;;;;;;;;;4979454;28;20228;-81
2022/05/28 14:05:55;;;;;;;1.60;1.00;;;;;;;;;;4977051;28;20614;-84
2022/05/28 14:08:23;;;;;;;2.10;1.20;;;;;;;;;;4995065;28;20189;-82
2022/05/28 14:10:54;;;;;;;1.35;0.80;;;;;;;;;;4994018;28;20444;-82
2022/05/28 14:13:25;;;;;;;0.90;0.80;;;;;;;;;;4995053;28;20236;-80
2022/05/28 14:15:53;;;;;;;1.35;0.65;;;;;;;;;;4996418;28;20243;-80
2022/05/28 14:18:22;;;;;;;4.38;1.58;;;;;;;;;;4997114;28;20212;-81
2022/05/28 14:20:51;;;;;;;1.10;0.60;;;;;;;;;;4996159;28;20231;-84
2022/05/28 14:23:25;;;;;;;7.00;1.83;;;;;;;;;;4996846;28;20239;-84
2022/05/28 14:25:54;;;;;;;1.00;0.68;;;;;;;;;;4997636;28;20223;-84
2022/05/28 14:28:23;;;;;;;1.25;0.73;;;;;;;;;;4997801;28;20229;-87
2022/05/28 14:30:50;;;;;;;1.23;0.77;;;;;;;;;;4999846;28;20243;-83
2022/05/28 14:33:23;;;;;;;2.20;1.20;;;;;;;;;;5002144;28;20236;-84
2022/05/28 14:35:50;;;;;;;2.63;1.08;;;;;;;;;;5003417;28;20322;-82
2022/05/28 14:38:25;;;;;;;3.55;1.25;;;;;;;;;;5002553;28;20215;-81
2022/05/28 14:40:55;;;;;;;1.30;0.93;;;;;;;;;;5002866;28;20227;-82
2022/05/28 14:43:27;;;;;;;1.50;0.73;;;;;;;;;;5004200;28;20650;-84
2022/05/28 14:46:02;;;;;;;1.60;1.05;;;;;;;;;;4998908;28;20252;-80
2022/05/28 14:48:29;;;;;;;2.35;1.30;;;;;;;;;;5000317;28;20211;-80
2022/05/28 14:51:02;;;;;;;3.33;2.60;;;;;;;;;;5004014;28;20232;-81
2022/05/28 14:53:30;;;;;;;2.40;1.70;;;;;;;;;;5005790;28;20880;-80
2022/05/28 14:55:59;;;;;;;2.10;0.93;;;;;;;;;;5002480;28;20263;-84
2022/05/28 14:58:27;;;;;;;8.27;3.85;;;;;;;;;;4999684;28;20210;-82
2022/05/28 15:01:07;;;;;;;1.80;1.23;;;;;;;;;;4985396;28;20228;-79